DFEK weather

Koupela Airport
Koupela, Kouritenga, Burkina Faso

Public forecast

Using degrees Celsius for public forecast. Weather courtesy of forecast.io.

Closest aviation weather report (METAR) to Koupela Airport

Report is more than 6 hours old.

Closest report is Fada N'gourma Airport, 39.0 nm (72.2 km) ESE. Retrieved 2009/09/21 17:00 UTC (11 years ago):

DFEF 211700Z 00000KT 9999 FEW0226 TCU BKN260 30/25

Closest aviation forecast (TAF) to Koupela Airport

Closest forecast is Ouagadougou Airport, 72.0 nm (133.4 km) W. Retrieved 2020/03/31 18:00 UTC (24 minutes ago):

TAF DFFD 311700Z 3118/0124 06008KT 8000 NSC